sensor_id;sensor_type;location;lat;lon;timestamp;P1;durP1;ratioP1;P2;durP2;ratioP2
27293;SDS011;14785;52.556;13.430;2023-09-18T00:00:45;16.25;;;14.65;;
27293;SDS011;14785;52.556;13.430;2023-09-18T00:03:15;18.10;;;16.65;;
27293;SDS011;14785;52.556;13.430;2023-09-18T00:05:45;15.73;;;14.23;;
27293;SDS011;14785;52.556;13.430;2023-09-18T00:08:13;14.63;;;13.45;;
27293;SDS011;14785;52.556;13.430;2023-09-18T00:10:39;16.08;;;14.48;;
27293;SDS011;14785;52.556;13.430;2023-09-18T00:13:04;15.95;;;14.60;;
27293;SDS011;14785;52.556;13.430;2023-09-18T00:15:30;29.10;;;27.13;;
27293;SDS011;14785;52.556;13.430;2023-09-18T00:17:56;24.88;;;22.95;;
27293;SDS011;14785;52.556;13.430;2023-09-18T00:20:21;21.73;;;20.07;;
27293;SDS011;14785;52.556;13.430;2023-09-18T00:22:53;17.17;;;15.57;;
27293;SDS011;14785;52.556;13.430;2023-09-18T00:25:20;15.73;;;14.15;;
27293;SDS011;14785;52.556;13.430;2023-09-18T00:27:45;18.00;;;16.53;;
27293;SDS011;14785;52.556;13.430;2023-09-18T00:30:11;22.40;;;20.83;;
27293;SDS011;14785;52.556;13.430;2023-09-18T00:32:36;23.83;;;22.13;;
27293;SDS011;14785;52.556;13.430;2023-09-18T00:35:02;23.25;;;21.30;;
27293;SDS011;14785;52.556;13.430;2023-09-18T00:37:29;22.38;;;20.67;;
27293;SDS011;14785;52.556;13.430;2023-09-18T00:39:54;23.07;;;21.13;;
27293;SDS011;14785;52.556;13.430;2023-09-18T00:42:20;30.00;;;27.97;;
27293;SDS011;14785;52.556;13.430;2023-09-18T00:44:47;31.45;;;29.33;;
27293;SDS011;14785;52.556;13.430;2023-09-18T00:47:13;31.17;;;29.07;;
27293;SDS011;14785;52.556;13.430;2023-09-18T00:49:40;16.20;;;14.90;;
27293;SDS011;14785;52.556;13.430;2023-09-18T00:52:08;15.10;;;13.90;;
27293;SDS011;14785;52.556;13.430;2023-09-18T00:54:35;16.27;;;14.77;;
27293;SDS011;14785;52.556;13.430;2023-09-18T00:57:03;15.77;;;14.55;;
27293;SDS011;14785;52.556;13.430;2023-09-18T00:59:29;25.85;;;23.85;;
27293;SDS011;14785;52.556;13.430;2023-09-18T01:04:21;28.27;;;26.38;;
27293;SDS011;14785;52.556;13.430;2023-09-18T01:06:50;35.50;;;32.90;;
27293;SDS011;14785;52.556;13.430;2023-09-18T01:09:16;26.93;;;25.07;;
27293;SDS011;14785;52.556;13.430;2023-09-18T01:11:49;18.50;;;16.85;;
27293;SDS011;14785;52.556;13.430;2023-09-18T01:14:31;16.30;;;14.90;;
27293;SDS011;14785;52.556;13.430;2023-09-18T01:17:02;20.65;;;19.10;;
27293;SDS011;14785;52.556;13.430;2023-09-18T01:19:43;17.00;;;15.40;;
27293;SDS011;14785;52.556;13.430;2023-09-18T01:22:11;16.80;;;15.30;;
27293;SDS011;14785;52.556;13.430;2023-09-18T01:24:41;18.58;;;16.02;;
27293;SDS011;14785;52.556;13.430;2023-09-18T01:27:10;19.73;;;18.23;;
27293;SDS011;14785;52.556;13.430;2023-09-18T01:29:41;26.33;;;24.20;;
27293;SDS011;14785;52.556;13.430;2023-09-18T01:32:07;28.48;;;26.40;;
27293;SDS011;14785;52.556;13.430;2023-09-18T01:34:54;31.03;;;28.90;;
27293;SDS011;14785;52.556;13.430;2023-09-18T01:37:21;29.15;;;27.27;;
27293;SDS011;14785;52.556;13.430;2023-09-18T01:39:49;16.58;;;15.30;;
27293;SDS011;14785;52.556;13.430;2023-09-18T01:42:16;21.92;;;20.35;;
27293;SDS011;14785;52.556;13.430;2023-09-18T01:44:42;26.38;;;24.15;;
27293;SDS011;14785;52.556;13.430;2023-09-18T01:47:12;24.13;;;22.40;;
27293;SDS011;14785;52.556;13.430;2023-09-18T01:49:41;24.35;;;22.58;;
27293;SDS011;14785;52.556;13.430;2023-09-18T01:52:07;26.38;;;24.63;;
27293;SDS011;14785;52.556;13.430;2023-09-18T01:54:33;21.13;;;19.40;;
27293;SDS011;14785;52.556;13.430;2023-09-18T01:59:25;13.82;;;12.73;;
27293;SDS011;14785;52.556;13.430;2023-09-18T02:01:51;15.93;;;14.23;;
27293;SDS011;14785;52.556;13.430;2023-09-18T02:06:43;14.07;;;12.77;;
27293;SDS011;14785;52.556;13.430;2023-09-18T02:09:09;17.67;;;16.17;;
27293;SDS011;14785;52.556;13.430;2023-09-18T02:11:46;16.13;;;14.87;;
27293;SDS011;14785;52.556;13.430;2023-09-18T02:14:13;15.45;;;14.10;;
27293;SDS011;14785;52.556;13.430;2023-09-18T02:19:09;14.00;;;12.80;;
27293;SDS011;14785;52.556;13.430;2023-09-18T02:21:35;20.45;;;18.90;;
27293;SDS011;14785;52.556;13.430;2023-09-18T02:24:02;25.38;;;23.45;;
27293;SDS011;14785;52.556;13.430;2023-09-18T02:26:27;20.70;;;19.27;;
27293;SDS011;14785;52.556;13.430;2023-09-18T02:28:54;19.67;;;18.10;;
27293;SDS011;14785;52.556;13.430;2023-09-18T02:31:20;20.85;;;19.35;;
27293;SDS011;14785;52.556;13.430;2023-09-18T02:33:46;14.40;;;12.93;;
27293;SDS011;14785;52.556;13.430;2023-09-18T02:36:13;14.02;;;12.75;;
27293;SDS011;14785;52.556;13.430;2023-09-18T02:38:38;14.68;;;12.88;;
27293;SDS011;14785;52.556;13.430;2023-09-18T02:41:04;16.37;;;14.80;;
27293;SDS011;14785;52.556;13.430;2023-09-18T02:43:29;14.13;;;12.83;;
27293;SDS011;14785;52.556;13.430;2023-09-18T02:45:54;15.00;;;13.43;;
27293;SDS011;14785;52.556;13.430;2023-09-18T02:48:20;14.37;;;13.07;;
27293;SDS011;14785;52.556;13.430;2023-09-18T02:50:45;14.23;;;12.93;;
27293;SDS011;14785;52.556;13.430;2023-09-18T02:53:16;14.15;;;12.75;;
27293;SDS011;14785;52.556;13.430;2023-09-18T02:55:46;14.57;;;13.30;;
27293;SDS011;14785;52.556;13.430;2023-09-18T02:58:16;14.95;;;13.55;;
27293;SDS011;14785;52.556;13.430;2023-09-18T03:00:43;14.13;;;12.93;;
27293;SDS011;14785;52.556;13.430;2023-09-18T03:05:35;14.35;;;12.93;;
27293;SDS011;14785;52.556;13.430;2023-09-18T03:08:01;15.30;;;13.70;;
27293;SDS011;14785;52.556;13.430;2023-09-18T03:10:26;14.80;;;13.60;;
27293;SDS011;14785;52.556;13.430;2023-09-18T03:12:53;14.45;;;13.15;;
27293;SDS011;14785;52.556;13.430;2023-09-18T03:15:18;15.57;;;13.60;;
27293;SDS011;14785;52.556;13.430;2023-09-18T03:17:44;14.18;;;12.98;;
27293;SDS011;14785;52.556;13.430;2023-09-18T03:20:09;15.33;;;12.83;;
27293;SDS011;14785;52.556;13.430;2023-09-18T03:22:35;13.55;;;12.23;;
27293;SDS011;14785;52.556;13.430;2023-09-18T03:25:01;14.57;;;13.03;;
27293;SDS011;14785;52.556;13.430;2023-09-18T03:27:26;16.50;;;14.93;;
27293;SDS011;14785;52.556;13.430;2023-09-18T03:29:56;22.58;;;20.80;;
27293;SDS011;14785;52.556;13.430;2023-09-18T03:32:25;19.83;;;18.35;;
27293;SDS011;14785;52.556;13.430;2023-09-18T03:34:50;23.17;;;21.13;;
27293;SDS011;14785;52.556;13.430;2023-09-18T03:37:16;18.20;;;16.55;;
27293;SDS011;14785;52.556;13.430;2023-09-18T03:39:42;18.03;;;16.43;;
27293;SDS011;14785;52.556;13.430;2023-09-18T03:42:07;19.80;;;17.30;;
27293;SDS011;14785;52.556;13.430;2023-09-18T03:44:33;17.20;;;15.70;;
27293;SDS011;14785;52.556;13.430;2023-09-18T03:46:58;19.37;;;17.77;;
27293;SDS011;14785;52.556;13.430;2023-09-18T03:49:23;17.07;;;15.53;;
27293;SDS011;14785;52.556;13.430;2023-09-18T03:51:49;26.52;;;23.77;;
27293;SDS011;14785;52.556;13.430;2023-09-18T03:54:15;19.75;;;17.80;;
27293;SDS011;14785;52.556;13.430;2023-09-18T03:56:40;63.43;;;49.53;;
27293;SDS011;14785;52.556;13.430;2023-09-18T03:59:06;19.47;;;17.73;;
27293;SDS011;14785;52.556;13.430;2023-09-18T04:01:31;17.97;;;16.03;;
27293;SDS011;14785;52.556;13.430;2023-09-18T04:03:56;14.67;;;13.47;;
27293;SDS011;14785;52.556;13.430;2023-09-18T04:08:49;19.60;;;18.08;;
27293;SDS011;14785;52.556;13.430;2023-09-18T04:11:16;20.75;;;18.83;;
27293;SDS011;14785;52.556;13.430;2023-09-18T04:13:42;18.55;;;16.95;;
27293;SDS011;14785;52.556;13.430;2023-09-18T04:16:07;19.77;;;18.27;;
27293;SDS011;14785;52.556;13.430;2023-09-18T04:18:33;20.40;;;18.70;;
27293;SDS011;14785;52.556;13.430;2023-09-18T04:20:58;20.53;;;18.83;;
27293;SDS011;14785;52.556;13.430;2023-09-18T04:23:25;20.47;;;18.87;;
27293;SDS011;14785;52.556;13.430;2023-09-18T04:25:52;24.45;;;22.38;;
27293;SDS011;14785;52.556;13.430;2023-09-18T04:28:20;22.35;;;20.45;;
27293;SDS011;14785;52.556;13.430;2023-09-18T04:30:47;24.40;;;22.10;;
27293;SDS011;14785;52.556;13.430;2023-09-18T04:33:13;20.98;;;19.23;;
27293;SDS011;14785;52.556;13.430;2023-09-18T04:35:40;21.17;;;19.52;;
27293;SDS011;14785;52.556;13.430;2023-09-18T04:38:06;23.63;;;21.77;;
27293;SDS011;14785;52.556;13.430;2023-09-18T04:40:33;31.55;;;29.30;;
27293;SDS011;14785;52.556;13.430;2023-09-18T04:45:25;18.40;;;16.58;;
27293;SDS011;14785;52.556;13.430;2023-09-18T04:47:51;43.20;;;37.70;;
27293;SDS011;14785;52.556;13.430;2023-09-18T04:50:16;19.08;;;17.20;;
27293;SDS011;14785;52.556;13.430;2023-09-18T04:52:42;19.40;;;17.67;;
27293;SDS011;14785;52.556;13.430;2023-09-18T04:55:08;37.85;;;35.40;;
27293;SDS011;14785;52.556;13.430;2023-09-18T04:57:33;39.73;;;36.87;;
27293;SDS011;14785;52.556;13.430;2023-09-18T04:59:59;40.13;;;37.33;;
27293;SDS011;14785;52.556;13.430;2023-09-18T05:02:25;20.08;;;18.50;;
27293;SDS011;14785;52.556;13.430;2023-09-18T05:04:51;45.77;;;42.20;;
27293;SDS011;14785;52.556;13.430;2023-09-18T05:09:42;23.08;;;20.80;;
27293;SDS011;14785;52.556;13.430;2023-09-18T05:12:08;48.50;;;44.08;;
27293;SDS011;14785;52.556;13.430;2023-09-18T05:14:39;79.47;;;70.05;;
27293;SDS011;14785;52.556;13.430;2023-09-18T05:17:05;39.25;;;36.42;;
27293;SDS011;14785;52.556;13.430;2023-09-18T05:19:35;31.50;;;29.30;;
27293;SDS011;14785;52.556;13.430;2023-09-18T05:22:00;23.97;;;22.03;;
27293;SDS011;14785;52.556;13.430;2023-09-18T05:24:25;17.33;;;15.77;;
27293;SDS011;14785;52.556;13.430;2023-09-18T05:26:52;23.67;;;21.85;;
27293;SDS011;14785;52.556;13.430;2023-09-18T05:29:18;25.23;;;23.20;;
27293;SDS011;14785;52.556;13.430;2023-09-18T05:31:44;21.13;;;19.02;;
27293;SDS011;14785;52.556;13.430;2023-09-18T05:34:10;19.70;;;17.98;;
27293;SDS011;14785;52.556;13.430;2023-09-18T05:36:36;18.73;;;16.95;;
27293;SDS011;14785;52.556;13.430;2023-09-18T05:39:02;18.00;;;16.00;;
27293;SDS011;14785;52.556;13.430;2023-09-18T05:41:28;19.70;;;15.88;;
27293;SDS011;14785;52.556;13.430;2023-09-18T05:43:54;19.50;;;16.43;;
27293;SDS011;14785;52.556;13.430;2023-09-18T05:46:22;16.58;;;14.88;;
27293;SDS011;14785;52.556;13.430;2023-09-18T05:48:47;16.37;;;14.63;;
27293;SDS011;14785;52.556;13.430;2023-09-18T05:51:13;15.93;;;14.27;;
27293;SDS011;14785;52.556;13.430;2023-09-18T05:53:38;16.75;;;15.02;;
27293;SDS011;14785;52.556;13.430;2023-09-18T05:56:04;30.47;;;27.33;;
27293;SDS011;14785;52.556;13.430;2023-09-18T05:58:31;40.53;;;31.50;;
27293;SDS011;14785;52.556;13.430;2023-09-18T06:00:58;22.10;;;19.88;;
27293;SDS011;14785;52.556;13.430;2023-09-18T06:03:25;18.55;;;16.80;;
27293;SDS011;14785;52.556;13.430;2023-09-18T06:05:51;17.98;;;16.23;;
27293;SDS011;14785;52.556;13.430;2023-09-18T06:08:17;17.43;;;15.83;;
27293;SDS011;14785;52.556;13.430;2023-09-18T06:10:43;22.20;;;19.65;;
27293;SDS011;14785;52.556;13.430;2023-09-18T06:13:09;24.25;;;22.20;;
27293;SDS011;14785;52.556;13.430;2023-09-18T06:15:35;20.75;;;19.08;;
27293;SDS011;14785;52.556;13.430;2023-09-18T06:18:00;17.97;;;16.27;;
27293;SDS011;14785;52.556;13.430;2023-09-18T06:20:26;17.13;;;15.45;;
27293;SDS011;14785;52.556;13.430;2023-09-18T06:22:52;20.50;;;18.63;;
27293;SDS011;14785;52.556;13.430;2023-09-18T06:25:17;20.60;;;18.53;;
27293;SDS011;14785;52.556;13.430;2023-09-18T06:27:43;17.77;;;16.00;;
27293;SDS011;14785;52.556;13.430;2023-09-18T06:30:08;17.97;;;16.17;;
27293;SDS011;14785;52.556;13.430;2023-09-18T06:32:34;19.42;;;17.70;;
27293;SDS011;14785;52.556;13.430;2023-09-18T06:35:01;18.73;;;16.67;;
27293;SDS011;14785;52.556;13.430;2023-09-18T06:37:27;19.80;;;16.63;;
27293;SDS011;14785;52.556;13.430;2023-09-18T06:39:52;16.30;;;14.60;;
27293;SDS011;14785;52.556;13.430;2023-09-18T06:42:18;16.27;;;14.67;;
27293;SDS011;14785;52.556;13.430;2023-09-18T06:44:44;17.48;;;15.88;;
27293;SDS011;14785;52.556;13.430;2023-09-18T06:47:10;17.00;;;15.27;;
27293;SDS011;14785;52.556;13.430;2023-09-18T06:49:35;17.07;;;15.43;;
27293;SDS011;14785;52.556;13.430;2023-09-18T06:52:01;17.77;;;15.85;;
27293;SDS011;14785;52.556;13.430;2023-09-18T06:54:27;20.73;;;18.92;;
27293;SDS011;14785;52.556;13.430;2023-09-18T06:56:52;18.33;;;16.60;;
27293;SDS011;14785;52.556;13.430;2023-09-18T06:59:18;18.07;;;16.37;;
27293;SDS011;14785;52.556;13.430;2023-09-18T07:01:43;15.67;;;14.27;;
27293;SDS011;14785;52.556;13.430;2023-09-18T07:04:09;16.40;;;14.70;;
27293;SDS011;14785;52.556;13.430;2023-09-18T07:06:34;15.77;;;13.97;;
27293;SDS011;14785;52.556;13.430;2023-09-18T07:09:00;15.03;;;13.73;;
27293;SDS011;14785;52.556;13.430;2023-09-18T07:11:25;16.13;;;14.70;;
27293;SDS011;14785;52.556;13.430;2023-09-18T07:13:51;14.00;;;12.53;;
27293;SDS011;14785;52.556;13.430;2023-09-18T07:16:17;15.40;;;13.80;;
27293;SDS011;14785;52.556;13.430;2023-09-18T07:18:42;14.83;;;13.53;;
27293;SDS011;14785;52.556;13.430;2023-09-18T07:21:08;15.98;;;14.63;;
27293;SDS011;14785;52.556;13.430;2023-09-18T07:23:33;16.23;;;14.83;;
27293;SDS011;14785;52.556;13.430;2023-09-18T07:26:02;16.10;;;14.60;;
27293;SDS011;14785;52.556;13.430;2023-09-18T07:28:27;21.23;;;19.17;;
27293;SDS011;14785;52.556;13.430;2023-09-18T07:30:53;16.30;;;14.77;;
27293;SDS011;14785;52.556;13.430;2023-09-18T07:33:21;16.52;;;15.40;;
27293;SDS011;14785;52.556;13.430;2023-09-18T07:35:47;16.92;;;15.52;;
27293;SDS011;14785;52.556;13.430;2023-09-18T07:38:13;17.08;;;15.35;;
27293;SDS011;14785;52.556;13.430;2023-09-18T07:40:39;20.40;;;18.73;;
27293;SDS011;14785;52.556;13.430;2023-09-18T07:43:04;21.20;;;19.57;;
27293;SDS011;14785;52.556;13.430;2023-09-18T07:45:30;23.93;;;22.37;;
27293;SDS011;14785;52.556;13.430;2023-09-18T07:47:55;23.40;;;21.33;;
27293;SDS011;14785;52.556;13.430;2023-09-18T07:50:20;20.90;;;19.17;;
27293;SDS011;14785;52.556;13.430;2023-09-18T07:52:46;22.63;;;20.77;;
27293;SDS011;14785;52.556;13.430;2023-09-18T07:55:12;17.30;;;15.77;;
27293;SDS011;14785;52.556;13.430;2023-09-18T07:57:37;19.73;;;18.23;;
27293;SDS011;14785;52.556;13.430;2023-09-18T08:00:03;18.75;;;17.00;;
27293;SDS011;14785;52.556;13.430;2023-09-18T08:02:33;43.15;;;33.63;;
27293;SDS011;14785;52.556;13.430;2023-09-18T08:05:00;17.90;;;16.05;;
27293;SDS011;14785;52.556;13.430;2023-09-18T08:07:26;18.17;;;16.77;;
27293;SDS011;14785;52.556;13.430;2023-09-18T08:09:53;15.05;;;13.63;;
27293;SDS011;14785;52.556;13.430;2023-09-18T08:12:18;12.83;;;11.63;;
27293;SDS011;14785;52.556;13.430;2023-09-18T08:14:44;11.23;;;10.23;;
27293;SDS011;14785;52.556;13.430;2023-09-18T08:17:09;11.03;;;10.00;;
27293;SDS011;14785;52.556;13.430;2023-09-18T08:19:34;16.40;;;14.98;;
27293;SDS011;14785;52.556;13.430;2023-09-18T08:22:02;15.30;;;13.80;;
27293;SDS011;14785;52.556;13.430;2023-09-18T08:24:29;13.43;;;12.32;;
27293;SDS011;14785;52.556;13.430;2023-09-18T08:26:55;14.43;;;13.23;;
27293;SDS011;14785;52.556;13.430;2023-09-18T08:29:21;12.93;;;11.63;;
27293;SDS011;14785;52.556;13.430;2023-09-18T08:31:47;12.88;;;11.60;;
27293;SDS011;14785;52.556;13.430;2023-09-18T08:34:12;13.35;;;12.35;;
27293;SDS011;14785;52.556;13.430;2023-09-18T08:36:38;11.77;;;10.67;;
27293;SDS011;14785;52.556;13.430;2023-09-18T08:39:03;12.57;;;11.47;;
27293;SDS011;14785;52.556;13.430;2023-09-18T08:41:32;11.18;;;10.18;;
27293;SDS011;14785;52.556;13.430;2023-09-18T08:46:25;11.82;;;10.73;;
27293;SDS011;14785;52.556;13.430;2023-09-18T08:48:50;10.33;;;9.23;;
27293;SDS011;14785;52.556;13.430;2023-09-18T08:51:16;11.10;;;10.00;;
27293;SDS011;14785;52.556;13.430;2023-09-18T08:53:43;10.13;;;9.32;;
27293;SDS011;14785;52.556;13.430;2023-09-18T08:56:10;10.20;;;9.23;;
27293;SDS011;14785;52.556;13.430;2023-09-18T08:58:37;18.10;;;9.18;;
27293;SDS011;14785;52.556;13.430;2023-09-18T09:01:07;11.35;;;10.25;;
27293;SDS011;14785;52.556;13.430;2023-09-18T09:03:41;11.75;;;10.85;;
27293;SDS011;14785;52.556;13.430;2023-09-18T09:06:11;13.07;;;12.07;;
27293;SDS011;14785;52.556;13.430;2023-09-18T09:08:38;13.32;;;12.13;;
27293;SDS011;14785;52.556;13.430;2023-09-18T09:11:04;11.13;;;9.93;;
27293;SDS011;14785;52.556;13.430;2023-09-18T09:13:29;10.30;;;9.43;;
27293;SDS011;14785;52.556;13.430;2023-09-18T09:15:55;8.77;;;8.07;;
27293;SDS011;14785;52.556;13.430;2023-09-18T09:18:23;9.27;;;8.30;;
27293;SDS011;14785;52.556;13.430;2023-09-18T09:20:53;49.58;;;34.85;;
27293;SDS011;14785;52.556;13.430;2023-09-18T09:23:24;11.07;;;8.43;;
27293;SDS011;14785;52.556;13.430;2023-09-18T09:25:50;11.75;;;10.30;;
27293;SDS011;14785;52.556;13.430;2023-09-18T09:30:55;12.07;;;8.55;;
27293;SDS011;14785;52.556;13.430;2023-09-18T09:33:26;21.77;;;15.40;;
27293;SDS011;14785;52.556;13.430;2023-09-18T09:35:51;22.80;;;17.53;;
27293;SDS011;14785;52.556;13.430;2023-09-18T09:38:17;11.57;;;9.70;;
27293;SDS011;14785;52.556;13.430;2023-09-18T09:40:45;10.82;;;8.90;;
27293;SDS011;14785;52.556;13.430;2023-09-18T09:43:11;16.23;;;9.52;;
27293;SDS011;14785;52.556;13.430;2023-09-18T09:45:40;9.50;;;8.60;;
27293;SDS011;14785;52.556;13.430;2023-09-18T09:48:07;10.68;;;8.93;;
27293;SDS011;14785;52.556;13.430;2023-09-18T09:50:33;8.38;;;7.57;;
27293;SDS011;14785;52.556;13.430;2023-09-18T09:53:10;7.93;;;7.20;;
27293;SDS011;14785;52.556;13.430;2023-09-18T09:55:36;9.10;;;8.30;;
27293;SDS011;14785;52.556;13.430;2023-09-18T09:58:04;8.95;;;8.13;;
27293;SDS011;14785;52.556;13.430;2023-09-18T10:03:00;8.45;;;7.35;;
27293;SDS011;14785;52.556;13.430;2023-09-18T10:05:28;7.80;;;7.20;;
27293;SDS011;14785;52.556;13.430;2023-09-18T10:07:59;8.70;;;7.90;;
27293;SDS011;14785;52.556;13.430;2023-09-18T10:10:30;8.38;;;7.65;;
27293;SDS011;14785;52.556;13.430;2023-09-18T10:13:09;10.32;;;8.10;;
27293;SDS011;14785;52.556;13.430;2023-09-18T10:15:38;10.35;;;7.65;;
27293;SDS011;14785;52.556;13.430;2023-09-18T10:18:05;18.50;;;15.73;;
27293;SDS011;14785;52.556;13.430;2023-09-18T10:20:37;15.80;;;11.75;;
27293;SDS011;14785;52.556;13.430;2023-09-18T10:23:11;11.85;;;8.75;;
27293;SDS011;14785;52.556;13.430;2023-09-18T10:25:46;8.48;;;7.78;;
27293;SDS011;14785;52.556;13.430;2023-09-18T10:28:13;12.85;;;8.75;;
27293;SDS011;14785;52.556;13.430;2023-09-18T10:30:40;10.10;;;9.10;;
27293;SDS011;14785;52.556;13.430;2023-09-18T10:33:07;9.73;;;8.98;;
27293;SDS011;14785;52.556;13.430;2023-09-18T10:35:34;9.10;;;8.35;;
27293;SDS011;14785;52.556;13.430;2023-09-18T10:38:01;9.10;;;8.13;;
27293;SDS011;14785;52.556;13.430;2023-09-18T10:40:28;10.95;;;8.02;;
27293;SDS011;14785;52.556;13.430;2023-09-18T10:42:55;9.02;;;8.13;;
27293;SDS011;14785;52.556;13.430;2023-09-18T10:45:22;9.25;;;8.30;;
27293;SDS011;14785;52.556;13.430;2023-09-18T10:47:48;12.93;;;8.70;;
27293;SDS011;14785;52.556;13.430;2023-09-18T10:50:24;11.27;;;8.43;;
27293;SDS011;14785;52.556;13.430;2023-09-18T10:52:51;11.27;;;7.57;;
27293;SDS011;14785;52.556;13.430;2023-09-18T10:55:16;11.60;;;7.70;;
27293;SDS011;14785;52.556;13.430;2023-09-18T11:00:21;8.52;;;7.50;;
27293;SDS011;14785;52.556;13.430;2023-09-18T11:02:53;8.60;;;7.65;;
27293;SDS011;14785;52.556;13.430;2023-09-18T11:08:30;12.63;;;7.88;;
27293;SDS011;14785;52.556;13.430;2023-09-18T11:13:30;9.95;;;7.40;;
27293;SDS011;14785;52.556;13.430;2023-09-18T11:16:02;9.23;;;8.30;;
27293;SDS011;14785;52.556;13.430;2023-09-18T11:18:40;8.52;;;7.70;;
27293;SDS011;14785;52.556;13.430;2023-09-18T11:21:09;12.05;;;7.18;;
27293;SDS011;14785;52.556;13.430;2023-09-18T11:23:37;8.77;;;7.30;;
27293;SDS011;14785;52.556;13.430;2023-09-18T11:26:07;8.80;;;8.00;;
27293;SDS011;14785;52.556;13.430;2023-09-18T11:30:59;8.77;;;7.93;;
27293;SDS011;14785;52.556;13.430;2023-09-18T11:38:50;9.35;;;7.93;;
27293;SDS011;14785;52.556;13.430;2023-09-18T11:41:23;11.68;;;10.48;;
27293;SDS011;14785;52.556;13.430;2023-09-18T11:46:47;10.50;;;7.90;;
27293;SDS011;14785;52.556;13.430;2023-09-18T11:49:15;9.35;;;7.80;;
27293;SDS011;14785;52.556;13.430;2023-09-18T11:51:46;9.75;;;8.15;;
27293;SDS011;14785;52.556;13.430;2023-09-18T11:54:12;9.73;;;8.13;;
27293;SDS011;14785;52.556;13.430;2023-09-18T11:56:40;9.30;;;7.97;;
27293;SDS011;14785;52.556;13.430;2023-09-18T11:59:06;10.82;;;8.82;;
27293;SDS011;14785;52.556;13.430;2023-09-18T12:01:31;8.45;;;7.70;;
27293;SDS011;14785;52.556;13.430;2023-09-18T12:04:01;11.65;;;7.88;;
27293;SDS011;14785;52.556;13.430;2023-09-18T12:06:32;10.18;;;9.40;;
27293;SDS011;14785;52.556;13.430;2023-09-18T12:08:58;13.77;;;9.05;;
27293;SDS011;14785;52.556;13.430;2023-09-18T12:11:24;13.50;;;9.20;;
27293;SDS011;14785;52.556;13.430;2023-09-18T12:13:50;11.27;;;9.43;;
27293;SDS011;14785;52.556;13.430;2023-09-18T12:16:17;13.68;;;9.43;;
27293;SDS011;14785;52.556;13.430;2023-09-18T12:18:47;9.95;;;8.98;;
27293;SDS011;14785;52.556;13.430;2023-09-18T12:21:13;10.35;;;9.45;;
27293;SDS011;14785;52.556;13.430;2023-09-18T12:23:40;11.63;;;8.75;;
27293;SDS011;14785;52.556;13.430;2023-09-18T12:26:09;14.45;;;9.00;;
27293;SDS011;14785;52.556;13.430;2023-09-18T12:28:38;13.95;;;7.90;;
27293;SDS011;14785;52.556;13.430;2023-09-18T12:33:30;10.10;;;8.20;;
27293;SDS011;14785;52.556;13.430;2023-09-18T12:36:00;9.27;;;8.48;;
27293;SDS011;14785;52.556;13.430;2023-09-18T12:38:26;9.20;;;7.57;;
27293;SDS011;14785;52.556;13.430;2023-09-18T12:40:53;8.75;;;7.95;;
27293;SDS011;14785;52.556;13.430;2023-09-18T12:43:19;10.00;;;8.70;;
27293;SDS011;14785;52.556;13.430;2023-09-18T12:45:47;9.13;;;8.18;;
27293;SDS011;14785;52.556;13.430;2023-09-18T12:48:14;12.73;;;9.15;;
27293;SDS011;14785;52.556;13.430;2023-09-18T12:50:40;11.73;;;10.75;;
27293;SDS011;14785;52.556;13.430;2023-09-18T12:53:13;13.30;;;10.20;;
27293;SDS011;14785;52.556;13.430;2023-09-18T12:55:39;8.77;;;7.93;;
27293;SDS011;14785;52.556;13.430;2023-09-18T12:58:09;14.95;;;13.65;;
27293;SDS011;14785;52.556;13.430;2023-09-18T13:00:35;9.73;;;8.13;;
27293;SDS011;14785;52.556;13.430;2023-09-18T13:03:03;10.48;;;7.90;;
27293;SDS011;14785;52.556;13.430;2023-09-18T13:05:29;13.95;;;8.98;;
27293;SDS011;14785;52.556;13.430;2023-09-18T13:08:01;11.45;;;10.43;;
27293;SDS011;14785;52.556;13.430;2023-09-18T13:10:27;10.02;;;8.82;;
27293;SDS011;14785;52.556;13.430;2023-09-18T13:12:53;13.97;;;9.13;;
27293;SDS011;14785;52.556;13.430;2023-09-18T13:17:55;11.73;;;8.40;;
27293;SDS011;14785;52.556;13.430;2023-09-18T13:20:22;10.90;;;8.80;;
27293;SDS011;14785;52.556;13.430;2023-09-18T13:22:53;14.52;;;9.88;;
27293;SDS011;14785;52.556;13.430;2023-09-18T13:25:20;12.55;;;8.20;;
27293;SDS011;14785;52.556;13.430;2023-09-18T13:27:47;9.27;;;8.25;;
27293;SDS011;14785;52.556;13.430;2023-09-18T13:30:12;13.52;;;8.45;;
27293;SDS011;14785;52.556;13.430;2023-09-18T13:32:42;15.93;;;9.85;;
27293;SDS011;14785;52.556;13.430;2023-09-18T13:35:11;13.18;;;11.82;;
27293;SDS011;14785;52.556;13.430;2023-09-18T13:37:38;12.20;;;11.02;;
27293;SDS011;14785;52.556;13.430;2023-09-18T13:40:05;11.43;;;9.90;;
27293;SDS011;14785;52.556;13.430;2023-09-18T13:42:34;10.48;;;9.45;;
27293;SDS011;14785;52.556;13.430;2023-09-18T13:47:28;9.98;;;8.75;;
27293;SDS011;14785;52.556;13.430;2023-09-18T13:49:54;12.43;;;10.32;;
27293;SDS011;14785;52.556;13.430;2023-09-18T13:52:25;11.13;;;8.90;;
27293;SDS011;14785;52.556;13.430;2023-09-18T13:55:00;13.55;;;11.73;;
27293;SDS011;14785;52.556;13.430;2023-09-18T13:57:30;15.68;;;11.10;;
27293;SDS011;14785;52.556;13.430;2023-09-18T13:59:59;15.40;;;11.15;;
27293;SDS011;14785;52.556;13.430;2023-09-18T14:02:25;14.13;;;12.52;;
27293;SDS011;14785;52.556;13.430;2023-09-18T14:04:52;11.10;;;9.90;;
27293;SDS011;14785;52.556;13.430;2023-09-18T14:07:21;13.70;;;9.80;;
27293;SDS011;14785;52.556;13.430;2023-09-18T14:09:47;14.07;;;9.70;;
27293;SDS011;14785;52.556;13.430;2023-09-18T14:12:13;11.73;;;10.23;;
27293;SDS011;14785;52.556;13.430;2023-09-18T14:14:40;13.85;;;9.80;;
27293;SDS011;14785;52.556;13.430;2023-09-18T14:17:07;11.85;;;9.18;;
27293;SDS011;14785;52.556;13.430;2023-09-18T14:21:59;12.98;;;11.48;;
27293;SDS011;14785;52.556;13.430;2023-09-18T14:24:29;11.35;;;8.90;;
27293;SDS011;14785;52.556;13.430;2023-09-18T14:26:55;13.85;;;8.93;;
27293;SDS011;14785;52.556;13.430;2023-09-18T14:29:21;14.37;;;13.27;;
27293;SDS011;14785;52.556;13.430;2023-09-18T14:31:46;13.60;;;11.93;;
27293;SDS011;14785;52.556;13.430;2023-09-18T14:34:12;12.47;;;11.17;;
27293;SDS011;14785;52.556;13.430;2023-09-18T14:36:37;14.50;;;12.53;;
27293;SDS011;14785;52.556;13.430;2023-09-18T14:39:07;15.07;;;11.65;;
27293;SDS011;14785;52.556;13.430;2023-09-18T14:41:36;19.13;;;9.55;;
27293;SDS011;14785;52.556;13.430;2023-09-18T14:44:04;18.45;;;13.52;;
27293;SDS011;14785;52.556;13.430;2023-09-18T14:46:31;15.38;;;13.02;;
27293;SDS011;14785;52.556;13.430;2023-09-18T14:49:00;15.55;;;9.23;;
27293;SDS011;14785;52.556;13.430;2023-09-18T14:51:26;12.02;;;9.10;;
27293;SDS011;14785;52.556;13.430;2023-09-18T14:53:55;16.40;;;7.80;;
27293;SDS011;14785;52.556;13.430;2023-09-18T14:56:21;13.45;;;8.35;;
27293;SDS011;14785;52.556;13.430;2023-09-18T14:58:46;22.00;;;9.37;;
27293;SDS011;14785;52.556;13.430;2023-09-18T15:01:12;18.73;;;12.43;;
27293;SDS011;14785;52.556;13.430;2023-09-18T15:03:39;14.98;;;9.77;;
27293;SDS011;14785;52.556;13.430;2023-09-18T15:06:05;13.82;;;6.85;;
27293;SDS011;14785;52.556;13.430;2023-09-18T15:08:32;9.90;;;6.80;;